Time;durP1;ratioP1;P1;durP2;ratioP2;P2;SDS_P1;SDS_P2;PMS_P1;PMS_P2;Temp;Humidity;BMP_temperature;BMP_pressure;BME280_temperature;BME280_humidity;BME280_pressure;Samples;Min_cycle;Max_cycle;Signal;HPM_P1;HPM_P2
2022/09/08 00:01:43;;;;;;;11.38;3.28;;;;;;;17.37;100.00;100937.09;5285209;28;20376;-75
2022/09/08 00:04:14;;;;;;;9.52;2.25;;;;;;;17.27;100.00;100938.38;5284137;28;20448;-76
2022/09/08 00:06:46;;;;;;;8.95;2.42;;;;;;;17.30;100.00;100928.97;5266837;28;20028;-74
2022/09/08 00:09:16;;;;;;;4.45;1.80;;;;;;;17.33;100.00;100934.00;5266840;28;20023;-75
2022/09/08 00:11:47;;;;;;;6.18;1.55;;;;;;;17.32;100.00;100921.50;5266835;28;20027;-75
2022/09/08 00:14:18;;;;;;;3.63;1.13;;;;;;;17.34;100.00;100900.41;5283900;28;20023;-75
2022/09/08 00:16:49;;;;;;;3.95;1.40;;;;;;;17.37;100.00;100891.00;5285311;28;20030;-76
2022/09/08 00:19:20;;;;;;;3.83;1.30;;;;;;;17.33;100.00;100898.75;5276672;28;20077;-77
2022/09/08 00:21:50;;;;;;;5.20;1.30;;;;;;;17.29;100.00;100890.19;5277776;28;20015;-74
2022/09/08 00:24:21;;;;;;;6.53;1.73;;;;;;;17.20;100.00;100883.31;5272791;28;20046;-75
2022/09/08 00:26:51;;;;;;;8.57;1.52;;;;;;;17.13;100.00;100879.78;5285344;28;20019;-75
2022/09/08 00:29:21;;;;;;;9.73;1.58;;;;;;;17.11;100.00;100875.59;5284772;28;20389;-76
2022/09/08 00:31:52;;;;;;;7.18;1.52;;;;;;;17.04;100.00;100872.88;5271203;28;20381;-77
2022/09/08 00:34:22;;;;;;;5.25;1.60;;;;;;;16.98;100.00;100871.00;5283964;28;20102;-76
2022/09/08 00:36:56;;;;;;;4.82;1.70;;;;;;;16.93;100.00;100858.09;5278204;28;20469;-77
2022/09/08 00:39:26;;;;;;;5.50;1.75;;;;;;;16.88;100.00;100848.91;5259471;28;20541;-77
2022/09/08 00:41:57;;;;;;;4.43;1.52;;;;;;;16.83;100.00;100857.66;5284908;28;20027;-76
2022/09/08 00:44:40;;;;;;;6.32;1.65;;;;;;;16.77;100.00;100851.19;5283791;28;20097;-76
2022/09/08 00:47:18;;;;;;;7.70;1.95;;;;;;;16.72;100.00;100842.84;5288295;28;20370;-77
2022/09/08 00:49:58;;;;;;;5.35;2.08;;;;;;;16.70;100.00;100835.94;5270168;28;20020;-76
2022/09/08 00:52:33;;;;;;;5.65;1.70;;;;;;;16.72;100.00;100833.91;5288810;28;20031;-75
2022/09/08 00:55:06;;;;;;;7.43;2.70;;;;;;;16.72;100.00;100828.47;5288282;28;20023;-76
2022/09/08 00:57:37;;;;;;;10.10;2.10;;;;;;;16.70;100.00;100831.34;5267142;28;20170;-76
2022/09/08 01:00:10;;;;;;;4.40;1.70;;;;;;;16.67;100.00;100820.09;5277920;28;20098;-76
2022/09/08 01:02:42;;;;;;;6.03;1.50;;;;;;;16.65;100.00;100814.03;5270918;28;20051;-75
2022/09/08 01:05:15;;;;;;;7.05;1.83;;;;;;;16.66;100.00;100796.75;5279489;28;20061;-76
2022/09/08 01:14:11;;;;;;;7.45;1.80;;;;;;;16.55;100.00;100798.19;5288154;28;20404;-77
2022/09/08 01:16:44;;;;;;;9.18;2.13;;;;;;;16.49;100.00;100804.44;5270232;28;20072;-77
2022/09/08 01:19:20;;;;;;;4.15;1.75;;;;;;;16.42;100.00;100807.16;5275134;28;20499;-77
2022/09/08 01:22:22;;;;;;;9.52;2.00;;;;;;;16.35;100.00;100810.88;5288716;28;20094;-76
2022/09/08 01:25:12;;;;;;;4.32;1.70;;;;;;;16.27;100.00;100814.63;5287179;28;20039;-77
2022/09/08 01:27:48;;;;;;;6.78;2.35;;;;;;;16.21;100.00;100824.34;5288908;28;20396;-75
2022/09/08 01:30:19;;;;;;;2.78;1.92;;;;;;;16.14;100.00;100828.94;5248662;28;20035;-75
2022/09/08 01:32:50;;;;;;;6.55;2.35;;;;;;;16.09;100.00;100812.47;5262055;28;20090;-77
2022/09/08 01:35:39;;;;;;;7.43;1.90;;;;;;;16.08;100.00;100804.56;5280112;28;20449;-76
2022/09/08 01:38:11;;;;;;;7.30;2.45;;;;;;;16.07;100.00;100809.16;5283497;28;20011;-75
2022/09/08 01:40:41;;;;;;;3.60;2.00;;;;;;;16.06;100.00;100799.34;5270003;28;20031;-75
2022/09/08 01:43:13;;;;;;;4.00;2.10;;;;;;;16.05;100.00;100805.78;5256629;28;20023;-76
2022/09/08 01:45:43;;;;;;;6.97;1.95;;;;;;;16.02;100.00;100811.63;5286869;28;20108;-77
2022/09/08 01:48:14;;;;;;;5.22;2.22;;;;;;;15.97;100.00;100814.94;5264320;28;20024;-75
2022/09/08 01:50:44;;;;;;;7.13;2.10;;;;;;;15.95;100.00;100817.00;5261486;28;20027;-75
2022/09/08 01:53:15;;;;;;;6.50;2.20;;;;;;;15.94;100.00;100826.16;5281331;28;20109;-75
2022/09/08 01:55:46;;;;;;;5.80;2.40;;;;;;;15.94;100.00;100830.72;5279991;28;20027;-74
2022/09/08 01:58:16;;;;;;;7.55;2.30;;;;;;;15.94;100.00;100828.03;5287203;28;20479;-75
2022/09/08 02:00:47;;;;;;;9.73;2.60;;;;;;;15.95;100.00;100822.41;5268917;28;20024;-77
2022/09/08 02:03:24;;;;;;;7.63;2.72;;;;;;;15.97;100.00;100824.94;5287825;28;20055;-77
2022/09/08 02:05:59;;;;;;;10.50;2.45;;;;;;;15.97;100.00;100825.75;5287389;28;20038;-77
2022/09/08 02:08:30;;;;;;;5.28;2.35;;;;;;;15.98;100.00;100815.78;5287085;28;20053;-76
2022/09/08 02:11:01;;;;;;;8.05;2.67;;;;;;;15.98;100.00;100816.59;5273435;28;20108;-77
2022/09/08 02:13:32;;;;;;;11.00;2.72;;;;;;;16.02;100.00;100815.16;5268584;28;20477;-77
2022/09/08 02:18:53;;;;;;;7.82;2.58;;;;;;;16.02;100.00;100823.28;5287314;28;20369;-75
2022/09/08 02:21:30;;;;;;;11.27;2.85;;;;;;;16.01;100.00;100826.16;5287608;28;20046;-75
2022/09/08 02:24:03;;;;;;;5.07;2.67;;;;;;;15.98;100.00;100815.78;5286785;28;20425;-76
2022/09/08 02:26:34;;;;;;;7.32;2.97;;;;;;;15.97;100.00;100814.94;5286885;28;20128;-75
2022/09/08 02:29:08;;;;;;;8.70;3.00;;;;;;;15.96;100.00;100820.53;5287078;28;20044;-75
2022/09/08 02:31:39;;;;;;;10.30;2.60;;;;;;;15.95;100.00;100806.16;5286405;28;20466;-76
2022/09/08 02:34:09;;;;;;;10.57;3.28;;;;;;;15.95;100.00;100811.59;5267851;28;20024;-76
2022/09/08 02:36:40;;;;;;;11.68;3.10;;;;;;;15.94;100.00;100811.78;5287046;28;20534;-74
2022/09/08 02:39:17;;;;;;;10.90;3.42;;;;;;;15.94;100.00;100807.22;5287229;28;20114;-75
2022/09/08 02:41:47;;;;;;;10.20;3.00;;;;;;;15.95;100.00;100813.47;5268231;28;20065;-75
2022/09/08 02:44:18;;;;;;;9.00;3.00;;;;;;;15.95;100.00;100817.00;5285958;28;20251;-76
2022/09/08 02:46:48;;;;;;;7.28;2.67;;;;;;;15.96;100.00;100818.66;5268592;28;20037;-76
2022/09/08 02:49:19;;;;;;;10.80;3.53;;;;;;;15.96;100.00;100826.78;5272718;28;20059;-76
2022/09/08 02:51:49;;;;;;;8.40;3.05;;;;;;;15.93;100.00;100819.06;5268589;28;20030;-76
2022/09/08 02:54:20;;;;;;;7.90;3.13;;;;;;;15.94;100.00;100803.69;5285420;28;20023;-73
2022/09/08 02:56:51;;;;;;;10.80;3.38;;;;;;;15.96;100.00;100809.72;5286584;28;20020;-73
2022/09/08 02:59:21;;;;;;;12.48;3.30;;;;;;;15.94;100.00;100819.91;5267984;28;20030;-73
2022/09/08 03:01:51;;;;;;;8.45;3.10;;;;;;;15.95;100.00;100819.69;5286137;28;20115;-73
2022/09/08 03:04:22;;;;;;;7.30;2.80;;;;;;;15.94;100.00;100817.19;5285223;28;20027;-73
2022/09/08 03:06:52;;;;;;;8.82;3.10;;;;;;;15.92;100.00;100811.16;5285538;28;20469;-74
2022/09/08 03:09:23;;;;;;;6.20;3.15;;;;;;;15.91;100.00;100815.72;5285486;28;20027;-73
2022/09/08 03:11:54;;;;;;;16.98;3.83;;;;;;;15.90;100.00;100807.81;5285939;28;20026;-73
2022/09/08 03:14:24;;;;;;;8.25;2.85;;;;;;;15.91;100.00;100810.31;5285064;28;20019;-73
2022/09/08 03:16:56;;;;;;;6.15;2.97;;;;;;;15.90;100.00;100807.81;5285936;28;20328;-74
2022/09/08 03:19:26;;;;;;;7.75;3.05;;;;;;;15.91;100.00;100799.50;5285509;28;20031;-74
2022/09/08 03:21:57;;;;;;;9.32;4.22;;;;;;;15.92;100.00;100803.06;5285948;28;20042;-74
2022/09/08 03:24:27;;;;;;;6.50;2.45;;;;;;;15.92;100.00;100806.59;5285145;28;20046;-74
2022/09/08 03:26:58;;;;;;;8.68;3.00;;;;;;;15.91;100.00;100799.50;5285730;28;20110;-74
2022/09/08 03:29:30;;;;;;;9.88;3.58;;;;;;;15.92;100.00;100806.59;5285841;28;20108;-74
2022/09/08 03:32:01;;;;;;;14.73;4.15;;;;;;;15.90;100.00;100805.09;5285444;28;20028;-74
2022/09/08 03:34:31;;;;;;;14.00;4.00;;;;;;;15.88;100.00;100799.06;5284561;28;20205;-74
2022/09/08 03:37:02;;;;;;;11.30;3.40;;;;;;;15.85;100.00;100796.78;5285492;28;20112;-74
2022/09/08 03:39:32;;;;;;;8.77;4.07;;;;;;;15.83;100.00;100788.03;5285790;28;20023;-74
2022/09/08 03:42:03;;;;;;;12.00;3.95;;;;;;;15.82;100.00;100789.91;5286128;28;20024;-74
2022/09/08 03:44:34;;;;;;;9.50;4.32;;;;;;;15.82;100.00;100787.19;5284624;28;20123;-74
2022/09/08 03:47:05;;;;;;;12.57;3.75;;;;;;;15.81;100.00;100788.22;5286132;28;20468;-74
2022/09/08 03:49:35;;;;;;;11.73;3.90;;;;;;;15.80;100.00;100787.38;5272363;28;20030;-74
2022/09/08 03:52:07;;;;;;;10.88;3.97;;;;;;;15.79;100.00;100788.41;5268472;28;20016;-74
2022/09/08 03:54:48;;;;;;;10.32;4.03;;;;;;;15.78;100.00;100781.34;5286022;28;20250;-74
2022/09/08 03:57:24;;;;;;;15.07;4.55;;;;;;;15.78;100.00;100778.66;5285998;28;20027;-75
2022/09/08 03:59:57;;;;;;;11.60;4.28;;;;;;;15.77;100.00;100782.41;5272516;28;20031;-74
2022/09/08 04:02:29;;;;;;;14.60;4.55;;;;;;;15.75;100.00;100779.03;5285435;28;20032;-74
2022/09/08 04:05:00;;;;;;;9.88;4.65;;;;;;;15.74;100.00;100790.06;5284923;28;20031;-74
2022/09/08 04:07:31;;;;;;;15.50;4.60;;;;;;;15.69;100.00;100777.16;5284752;28;20515;-73
2022/09/08 04:10:03;;;;;;;10.23;4.13;;;;;;;15.69;100.00;100773.63;5285215;28;20055;-73
2022/09/08 04:12:34;;;;;;;11.90;4.72;;;;;;;15.68;100.00;100780.06;5271619;28;20028;-73
2022/09/08 04:15:06;;;;;;;11.50;4.90;;;;;;;15.70;100.00;100781.50;5284293;28;20034;-73
2022/09/08 04:17:37;;;;;;;13.68;5.72;;;;;;;15.69;100.00;100779.03;5272213;28;20031;-73
2022/09/08 04:20:09;;;;;;;13.25;5.32;;;;;;;15.66;100.00;100780.28;5287975;28;20553;-73
2022/09/08 04:22:39;;;;;;;22.90;5.93;;;;;;;15.65;100.00;100784.00;5289585;28;20069;-73
2022/09/08 04:25:10;;;;;;;21.05;5.97;;;;;;;15.64;100.00;100795.00;5288609;28;20026;-73
2022/09/08 04:27:41;;;;;;;11.27;5.38;;;;;;;15.66;100.00;100792.94;5289566;28;20027;-73
2022/09/08 04:30:12;;;;;;;20.42;6.35;;;;;;;15.66;100.00;100798.34;5288897;28;20023;-73
2022/09/08 04:32:43;;;;;;;15.40;6.25;;;;;;;15.68;100.00;100802.53;5271135;28;20035;-72
2022/09/08 04:35:13;;;;;;;15.80;6.07;;;;;;;15.71;100.00;100801.28;5288231;28;20023;-73
2022/09/08 04:37:44;;;;;;;19.40;6.75;;;;;;;15.69;100.00;100806.06;5289459;28;20031;-73
2022/09/08 04:40:14;;;;;;;19.33;6.55;;;;;;;15.69;100.00;100796.06;5288895;28;20019;-73
2022/09/08 04:42:45;;;;;;;14.77;6.82;;;;;;;15.69;100.00;100790.66;5288972;28;20442;-72
2022/09/08 04:45:19;;;;;;;20.95;7.13;;;;;;;15.67;100.00;100787.34;5288410;28;20066;-72
2022/09/08 04:47:50;;;;;;;21.67;7.32;;;;;;;15.69;100.00;100796.06;5287143;28;20016;-73
2022/09/08 04:50:20;;;;;;;20.38;7.78;;;;;;;15.69;100.00;100798.78;5276901;28;20055;-73
2022/09/08 04:52:51;;;;;;;16.25;7.38;;;;;;;15.70;100.00;100797.75;5289618;28;20397;-73
2022/09/08 04:55:21;;;;;;;20.13;8.52;;;;;;;15.71;100.00;100803.97;5287888;28;20427;-73
2022/09/08 04:57:52;;;;;;;22.90;8.90;;;;;;;15.69;100.00;100797.94;5275333;28;20046;-74
2022/09/08 05:00:22;;;;;;;19.40;7.50;;;;;;;15.65;100.00;100794.81;5270640;28;20028;-73
2022/09/08 05:02:53;;;;;;;22.50;8.60;;;;;;;15.63;100.00;100798.72;5288676;28;20024;-74
2022/09/08 05:05:23;;;;;;;23.08;8.88;;;;;;;15.57;100.00;100797.66;5288108;28;20051;-73
2022/09/08 05:07:53;;;;;;;30.20;9.57;;;;;;;15.52;100.00;100795.56;5274580;28;20023;-73
2022/09/08 05:10:24;;;;;;;23.05;8.75;;;;;;;15.50;100.00;100807.59;5288255;28;20106;-73
2022/09/08 05:12:55;;;;;;;22.10;9.52;;;;;;;15.48;100.00;100809.66;5288793;28;20145;-73
2022/09/08 05:15:25;;;;;;;22.77;9.57;;;;;;;15.47;100.00;100805.31;5284692;28;20016;-73
2022/09/08 05:17:56;;;;;;;17.25;8.90;;;;;;;15.48;100.00;100810.50;5267424;28;20028;-73
2022/09/08 05:20:26;;;;;;;19.88;9.15;;;;;;;15.50;100.00;100811.13;5285104;28;20481;-73
2022/09/08 05:22:56;;;;;;;19.45;9.32;;;;;;;15.50;100.00;100808.41;5288313;28;20112;-73
2022/09/08 05:25:27;;;;;;;22.55;9.35;;;;;;;15.47;100.00;100806.13;5273779;28;20409;-73
2022/09/08 05:27:58;;;;;;;24.20;9.30;;;;;;;15.43;100.00;100802.16;5288472;28;20043;-73
2022/09/08 05:30:28;;;;;;;30.77;8.75;;;;;;;15.39;100.00;100800.03;5286902;28;20096;-73
2022/09/08 05:32:59;;;;;;;31.08;9.38;;;;;;;15.35;100.00;100805.00;5288107;28;20099;-73
2022/09/08 05:35:29;;;;;;;32.97;10.55;;;;;;;15.31;100.00;100798.31;5279883;28;20035;-73
2022/09/08 05:38:00;;;;;;;24.15;9.45;;;;;;;15.27;100.00;100797.06;5274561;28;20024;-73
2022/09/08 05:40:34;;;;;;;24.17;9.10;;;;;;;15.25;100.00;100794.53;5287975;28;20469;-73
2022/09/08 05:43:04;;;;;;;27.10;10.05;;;;;;;15.24;100.00;100798.28;5288202;28;20023;-73
2022/09/08 05:45:35;;;;;;;22.05;10.23;;;;;;;15.21;100.00;100797.84;5287457;28;20061;-73
2022/09/08 05:48:05;;;;;;;26.35;9.18;;;;;;;15.17;100.00;100797.41;5282719;28;20028;-73
2022/09/08 05:50:36;;;;;;;23.73;9.65;;;;;;;15.14;100.00;100796.97;5279188;28;20046;-73
2022/09/08 05:53:06;;;;;;;21.30;10.02;;;;;;;15.09;100.00;100800.25;5282116;28;20522;-73
2022/09/08 05:55:37;;;;;;;18.75;9.27;;;;;;;15.08;100.00;100801.31;5279547;28;20032;-73
2022/09/08 05:58:10;;;;;;;25.77;10.02;;;;;;;15.04;100.00;100808.13;5267037;28;20115;-73
2022/09/08 06:00:41;;;;;;;25.05;10.57;;;;;;;15.03;100.00;100817.25;5281256;28;20474;-74
2022/09/08 06:03:11;;;;;;;27.90;11.23;;;;;;;15.01;100.00;100816.63;5288190;28;20132;-74
2022/09/08 06:05:42;;;;;;;26.13;10.55;;;;;;;14.98;100.00;100814.31;5286753;28;20039;-73
2022/09/08 06:08:12;;;;;;;19.33;10.40;;;;;;;14.95;100.00;100812.81;5287320;28;20059;-73
2022/09/08 06:10:43;;;;;;;21.35;10.70;;;;;;;15.10;100.00;100818.13;5283177;28;20077;-73
2022/09/08 06:13:13;;;;;;;21.58;10.80;;;;;;;15.40;100.00;100815.22;5278018;28;20500;-73
2022/09/08 06:15:44;;;;;;;22.77;10.00;;;;;;;15.54;100.00;100825.09;5286889;28;20028;-73
2022/09/08 06:18:17;;;;;;;20.58;9.77;;;;;;;15.95;100.00;100816.16;5287536;28;20020;-74
2022/09/08 06:20:47;;;;;;;15.40;7.82;;;;;;;16.19;100.00;100817.50;5286447;28;20457;-73
2022/09/08 06:23:18;;;;;;;18.00;7.15;;;;;;;16.41;100.00;100805.47;5287135;28;20110;-73
2022/09/08 06:25:48;;;;;;;14.23;6.03;;;;;;;16.82;100.00;100818.06;5286508;28;20029;-73
2022/09/08 06:28:29;;;;;;;8.60;5.38;;;;;;;16.92;100.00;100812.19;5286827;28;20103;-73
2022/09/08 06:31:00;;;;;;;14.35;5.95;;;;;;;16.79;100.00;100808.47;5287065;28;20031;-74
2022/09/08 06:33:37;;;;;;;11.25;5.78;;;;;;;16.67;100.00;100810.09;5287131;28;20481;-73
2022/09/08 06:36:10;;;;;;;12.20;5.18;;;;;;;16.85;100.00;100812.22;5286112;28;20031;-74
2022/09/08 06:38:40;;;;;;;10.38;5.20;;;;;;;17.39;100.00;100813.84;5286695;28;20022;-74
2022/09/08 06:41:16;;;;;;;10.70;4.75;;;;;;;18.31;100.00;100819.97;5286870;28;20016;-73
2022/09/08 06:43:53;;;;;;;8.82;3.63;;;;;;;18.75;100.00;100805.50;5267825;28;20023;-73
2022/09/08 06:46:28;;;;;;;9.93;3.80;;;;;;;18.80;100.00;100804.84;5285982;28;20031;-73
2022/09/08 06:48:59;;;;;;;11.30;5.00;;;;;;;18.52;100.00;100814.19;5286416;28;20037;-74
2022/09/08 06:51:36;;;;;;;9.90;3.65;;;;;;;18.56;100.00;100811.88;5286581;28;20027;-74
2022/09/08 06:54:22;;;;;;;9.77;3.65;;;;;;;18.99;100.00;100809.28;5285993;28;20026;-73
2022/09/08 06:57:09;;;;;;;7.35;3.38;;;;;;;19.42;100.00;100809.25;5286784;28;20091;-74
2022/09/08 06:59:44;;;;;;;5.75;2.90;;;;;;;19.83;100.00;100818.69;5286085;28;20392;-73
2022/09/08 07:02:33;;;;;;;8.77;2.92;;;;;;;19.65;100.00;100816.81;5273286;28;20034;-74
2022/09/08 07:05:41;;;;;;;6.82;2.90;;;;;;;19.45;100.00;100813.44;5285862;28;20082;-74
2022/09/08 07:08:30;;;;;;;7.13;3.00;;;;;;;18.34;100.00;100819.56;5265224;28;20035;-74
2022/09/08 07:11:30;;;;;;;9.02;3.35;;;;;;;17.98;100.00;100823.69;5285247;28;20022;-73
2022/09/08 07:14:10;;;;;;;6.60;3.03;;;;;;;17.56;100.00;100825.06;5286208;28;20549;-73
2022/09/08 07:16:46;;;;;;;7.40;3.35;;;;;;;17.23;100.00;100831.38;5286060;28;20038;-73
2022/09/08 07:19:35;;;;;;;13.10;3.20;;;;;;;17.26;100.00;100814.69;5286367;28;20451;-73
2022/09/08 07:22:17;;;;;;;8.52;3.65;;;;;;;17.25;100.00;100810.31;5281481;28;20034;-74
2022/09/08 07:24:52;;;;;;;5.47;3.22;;;;;;;17.26;100.00;100811.97;5277674;28;20038;-73
2022/09/08 07:27:24;;;;;;;12.60;3.63;;;;;;;17.71;100.00;100812.06;5272572;28;20484;-73
2022/09/08 07:30:00;;;;;;;7.32;2.95;;;;;;;18.29;100.00;100814.78;5285587;28;20031;-73
2022/09/08 07:32:35;;;;;;;10.13;2.67;;;;;;;19.14;100.00;100817.09;5286141;28;20030;-73
2022/09/08 07:35:13;;;;;;;15.45;3.15;;;;;;;19.95;100.00;100823.38;5284690;28;20020;-73
2022/09/08 07:37:50;;;;;;;8.35;2.72;;;;;;;20.41;100.00;100825.47;5272144;28;20031;-73
2022/09/08 07:40:25;;;;;;;9.20;2.70;;;;;;;19.68;100.00;100829.13;5264990;28;20024;-73
2022/09/08 07:42:57;;;;;;;10.05;2.55;;;;;;;19.97;100.00;100823.97;5267336;28;20085;-73
2022/09/08 07:45:42;;;;;;;5.70;2.10;;;;;;;20.27;100.00;100816.63;5285182;28;20055;-73
2022/09/08 07:48:39;;;;;;;9.57;2.92;;;;;;;20.60;100.00;100810.75;5279011;28;20031;-74
2022/09/08 07:51:13;;;;;;;4.85;1.90;;;;;;;21.17;100.00;100808.31;5285547;28;20444;-74
2022/09/08 07:53:54;;;;;;;6.15;2.45;;;;;;;20.93;100.00;100815.69;5276924;28;20031;-73
2022/09/08 07:56:42;;;;;;;6.88;2.33;;;;;;;21.44;100.00;100816.06;5295214;28;20023;-73
2022/09/08 07:59:31;;;;;;;11.88;2.80;;;;;;;21.68;100.00;100819.56;5307571;28;20054;-73
2022/09/08 08:02:20;;;;;;;5.38;2.00;;;;;;;21.57;100.00;100814.97;5293207;28;20435;-74
2022/09/08 08:05:24;;;;;;;5.80;2.00;;;;;;;21.96;100.00;100819.63;5279884;28;20520;-73
2022/09/08 08:08:15;;;;;;;11.38;2.40;;;;;;;21.68;100.00;100816.84;5279106;28;20020;-74
2022/09/08 08:11:06;;;;;;;7.18;2.13;;;;;;;21.59;100.00;100813.69;5292235;28;20499;-74
2022/09/08 08:14:03;;;;;;;6.95;2.08;;;;;;;21.49;100.00;100818.91;5291981;28;20043;-74
2022/09/08 08:16:58;;;;;;;8.40;2.90;;;;;;;21.17;100.00;100823.84;5291774;28;20084;-74
2022/09/08 08:19:47;;;;;;;7.57;2.33;;;;;;;20.71;100.00;100828.19;5273679;28;20027;-74
2022/09/08 08:22:22;;;;;;;7.57;1.88;;;;;;;20.29;100.00;100825.44;5291988;28;20031;-74
2022/09/08 08:25:01;;;;;;;6.70;2.13;;;;;;;20.15;100.00;100829.38;5277245;28;20032;-74
2022/09/08 08:27:38;;;;;;;7.57;2.17;;;;;;;19.29;100.00;100830.34;5280133;28;21433;-73
2022/09/08 08:30:21;;;;;;;7.85;2.28;;;;;;;19.29;100.00;100836.63;5292283;28;20059;-73
2022/09/08 08:33:27;;;;;;;5.75;2.22;;;;;;;19.78;100.00;100840.31;5279075;28;20481;-74
2022/09/08 08:36:20;;;;;;;8.93;2.20;;;;;;;20.16;100.00;100839.22;5287774;28;20485;-74
2022/09/08 08:39:00;;;;;;;5.75;1.52;;;;;;;20.03;100.00;100845.69;5280163;28;20384;-73
2022/09/08 08:41:57;;;;;;;7.53;1.63;;;;;;;19.77;100.00;100840.53;5292151;28;20027;-73
2022/09/08 08:44:29;;;;;;;5.43;1.67;;;;;;;19.26;100.00;100841.66;5290992;28;20031;-73
2022/09/08 08:47:19;;;;;;;5.30;1.33;;;;;;;19.39;100.00;100844.28;5292156;28;20470;-73
2022/09/08 08:50:21;;;;;;;5.78;1.60;;;;;;;19.70;100.00;100840.63;5291665;28;20077;-73
2022/09/08 08:53:17;;;;;;;5.20;1.42;;;;;;;21.05;100.00;100840.22;5291739;28;20058;-73
2022/09/08 08:56:21;;;;;;;9.30;2.00;;;;;;;21.36;100.00;100841.81;5290992;28;20142;-73
2022/09/08 08:59:25;;;;;;;5.68;1.65;;;;;;;21.07;100.00;100839.97;5291788;28;20480;-73
2022/09/08 09:02:04;;;;;;;5.10;1.58;;;;;;;20.60;100.00;100831.72;5291781;28;20015;-73
2022/09/08 09:04:58;;;;;;;10.70;2.10;;;;;;;20.45;100.00;100840.28;5277400;28;20528;-73
2022/09/08 09:07:54;;;;;;;7.25;1.95;;;;;;;20.20;100.00;100837.69;5287022;28;20027;-73
2022/09/08 09:10:54;;;;;;;8.75;1.95;;;;;;;20.02;100.00;100833.09;5274429;28;20035;-73
2022/09/08 09:13:41;;;;;;;5.40;1.60;;;;;;;19.90;100.00;100838.50;5287852;28;20028;-73
2022/09/08 09:16:49;;;;;;;5.38;1.92;;;;;;;20.21;100.00;100820.28;5276390;28;20099;-73
2022/09/08 09:19:20;;;;;;;3.65;1.40;;;;;;;20.72;100.00;100827.13;5288413;28;20031;-73
2022/09/08 09:22:00;;;;;;;4.55;2.10;;;;;;;20.61;100.00;100822.47;5287760;28;20053;-73
2022/09/08 09:25:04;;;;;;;7.00;2.25;;;;;;;20.19;100.00;100822.44;5276433;28;20492;-73
2022/09/08 09:27:54;;;;;;;9.15;2.78;;;;;;;20.12;100.00;100827.94;5276650;28;20407;-73
2022/09/08 09:30:37;;;;;;;12.13;2.92;;;;;;;19.69;100.00;100829.97;5287291;28;20042;-73
2022/09/08 09:33:37;;;;;;;9.60;2.83;;;;;;;19.28;100.00;100824.09;5274518;28;20481;-73
2022/09/08 09:36:45;;;;;;;8.25;2.67;;;;;;;18.96;100.00;100826.03;5287634;28;20024;-73
2022/09/08 09:39:45;;;;;;;16.50;3.28;;;;;;;19.13;100.00;100834.47;5279210;28;20494;-73
2022/09/08 09:42:33;;;;;;;6.72;2.60;;;;;;;19.49;100.00;100825.53;5287956;28;20019;-73
2022/09/08 09:45:35;;;;;;;14.02;3.03;;;;;;;19.76;100.00;100828.81;5286815;28;20441;-73
2022/09/08 09:48:28;;;;;;;6.88;2.38;;;;;;;19.57;100.00;100822.50;5287563;28;20393;-73
2022/09/08 09:51:04;;;;;;;9.43;2.78;;;;;;;19.54;100.00;100827.59;5287142;28;20024;-73
2022/09/08 09:53:36;;;;;;;6.85;2.15;;;;;;;20.11;100.00;100822.72;5287767;28;20071;-73
2022/09/08 09:56:44;;;;;;;6.70;2.78;;;;;;;21.03;100.00;100819.69;5286633;28;20031;-73
2022/09/08 09:59:45;;;;;;;4.97;2.70;;;;;;;21.29;100.00;100819.25;5287470;28;20206;-73
2022/09/08 10:02:35;;;;;;;5.80;2.22;;;;;;;20.97;100.00;100826.94;5287441;28;20026;-73
2022/09/08 10:05:46;;;;;;;6.53;2.63;;;;;;;20.49;100.00;100817.00;5286488;28;20091;-73
2022/09/08 10:08:48;;;;;;;6.78;2.38;;;;;;;20.34;100.00;100822.03;5269511;28;20019;-73
2022/09/08 10:11:55;;;;;;;4.13;2.00;;;;;;;21.27;100.00;100820.53;5287619;28;20030;-73
2022/09/08 10:14:36;;;;;;;;;;;;;;;21.58;100.00;100819.34;5286934;28;20559;-73
2022/09/08 10:17:28;;;;;;;10.13;2.40;;;;;;;21.90;100.00;100820.63;5286921;28;19907;-73
2022/09/08 10:20:32;;;;;;;5.32;2.22;;;;;;;22.32;100.00;100825.81;5287045;28;20072;-73
2022/09/08 10:23:33;;;;;;;4.30;1.48;;;;;;;22.72;100.00;100824.91;5287178;28;20036;-73
2022/09/08 10:26:41;;;;;;;5.55;1.95;;;;;;;22.32;100.00;100816.81;5286048;28;20091;-73
2022/09/08 10:29:33;;;;;;;7.95;1.63;;;;;;;21.77;100.00;100817.31;5286669;28;20383;-74
2022/09/08 10:32:24;;;;;;;3.95;1.52;;;;;;;20.93;100.00;100821.13;5286369;28;20034;-73
2022/09/08 10:35:32;;;;;;;6.28;1.55;;;;;;;20.75;100.00;100812.22;5285191;28;20119;-73
2022/09/08 10:38:19;;;;;;;9.25;2.20;;;;;;;20.60;100.00;100810.75;5286816;28;20161;-73
2022/09/08 10:41:27;;;;;;;5.10;2.03;;;;;;;20.33;100.00;100821.19;5286511;28;20432;-73
2022/09/08 10:44:35;;;;;;;9.48;2.22;;;;;;;20.33;100.00;100813.00;5276324;28;20031;-74
2022/09/08 10:47:25;;;;;;;4.97;1.70;;;;;;;20.14;100.00;100823.13;5286145;28;20020;-73
2022/09/08 10:50:15;;;;;;;4.90;2.00;;;;;;;19.83;100.00;100829.59;5286175;28;20028;-73
2022/09/08 10:53:07;;;;;;;5.45;1.92;;;;;;;19.60;100.00;100822.09;5283686;28;20063;-73
2022/09/08 10:55:44;;;;;;;4.40;1.98;;;;;;;19.42;100.00;100819.31;5277454;28;20456;-73
2022/09/08 10:58:51;;;;;;;4.43;1.52;;;;;;;19.38;100.00;100818.97;5286433;28;20426;-73
2022/09/08 11:01:40;;;;;;;;;;;;;;;19.61;100.00;100812.88;5286707;28;20023;-73
2022/09/08 11:04:26;;;;;;;3.80;1.80;;;;;;;20.05;100.00;100804.59;5285150;28;19915;-73
2022/09/08 11:07:20;;;;;;;4.88;1.73;;;;;;;20.75;100.00;100799.41;5286093;28;20031;-73
2022/09/08 11:10:00;;;;;;;11.10;2.05;;;;;;;21.32;100.00;100798.88;5285836;28;20487;-73
2022/09/08 11:12:45;;;;;;;8.48;1.50;;;;;;;21.60;100.00;100792.66;5281735;28;20039;-73
2022/09/08 11:15:54;;;;;;;5.28;1.27;;;;;;;22.17;100.00;100804.50;5284508;28;20033;-73
2022/09/08 11:18:27;;;;;;;5.75;1.58;;;;;;;22.60;100.00;100800.38;5285500;28;20500;-73
2022/09/08 11:21:01;;;;;;;7.05;1.88;;;;;;;22.70;100.00;100797.00;5285957;28;20026;-73
2022/09/08 11:24:09;;;;;;;5.05;1.48;;;;;;;22.89;100.00;100798.44;5286173;28;20040;-73
2022/09/08 11:27:12;;;;;;;8.70;1.77;;;;;;;22.91;100.00;100798.19;5285672;28;20024;-73
2022/09/08 11:29:47;;;;;;;8.77;1.65;;;;;;;22.58;100.00;100788.84;5277394;28;20035;-74
2022/09/08 11:32:35;;;;;;;8.95;1.95;;;;;;;22.87;100.00;100784.13;5285642;28;20019;-73
2022/09/08 11:35:24;;;;;;;9.77;1.92;;;;;;;22.94;100.00;100798.53;5284342;28;20023;-73
2022/09/08 11:38:32;;;;;;;6.07;1.77;;;;;;;22.80;100.00;100796.34;5285430;28;20016;-73
2022/09/08 11:41:39;;;;;;;7.82;1.80;;;;;;;23.00;100.00;100802.16;5285946;28;20504;-73
2022/09/08 11:44:29;;;;;;;6.88;1.77;;;;;;;22.76;100.00;100796.00;5263948;28;20039;-73
2022/09/08 11:47:18;;;;;;;6.00;1.98;;;;;;;22.95;100.00;100793.88;5273379;28;20370;-73
2022/09/08 11:50:23;;;;;;;5.78;1.92;;;;;;;22.97;100.00;100794.44;5271197;28;20168;-73
2022/09/08 11:53:23;;;;;;;7.50;2.08;;;;;;;23.05;100.00;100790.47;5272164;28;20039;-73
2022/09/08 11:56:28;;;;;;;9.50;2.05;;;;;;;22.23;100.00;100789.03;5282528;28;20110;-73
2022/09/08 11:59:17;;;;;;;7.07;1.77;;;;;;;22.00;100.00;100791.84;5278521;28;20023;-73
2022/09/08 12:02:04;;;;;;;7.03;1.67;;;;;;;21.52;100.00;100787.56;5276435;28;20038;-74
2022/09/08 12:05:11;;;;;;;6.50;1.70;;;;;;;21.58;100.00;100781.97;5286904;28;20024;-73
2022/09/08 12:07:53;;;;;;;9.48;1.85;;;;;;;21.71;100.00;100778.16;5285647;28;20545;-73
2022/09/08 12:10:57;;;;;;;6.30;1.95;;;;;;;21.57;100.00;100774.03;5266906;28;20031;-73
2022/09/08 12:13:44;;;;;;;12.35;2.00;;;;;;;21.93;100.00;100772.84;5285015;28;20035;-73
2022/09/08 12:16:32;;;;;;;7.13;1.80;;;;;;;22.39;100.00;100774.59;5264072;28;20578;-73
2022/09/08 12:19:28;;;;;;;12.75;2.00;;;;;;;22.86;100.00;100771.53;5283055;28;20114;-74
2022/09/08 12:22:06;;;;;;;9.75;1.95;;;;;;;22.76;100.00;100768.66;5266955;28;20629;-73